sensor_id;sensor_type;location;lat;lon;timestamp;P1;durP1;ratioP1;P2;durP2;ratioP2
15498;SDS011;7851;52.260;6.030;2022-08-30T00:02:32;5;;;4.5;;
15498;SDS011;7851;52.260;6.030;2022-08-30T00:02:32;4.8;;;4.4;;
15498;SDS011;7851;52.260;6.030;2022-08-30T00:02:32;5.4;;;4.5;;
15498;SDS011;7851;52.260;6.030;2022-08-30T00:03:21;4.5;;;4.2;;
15498;SDS011;7851;52.260;6.030;2022-08-30T00:04:21;4.8;;;4.3;;
15498;SDS011;7851;52.260;6.030;2022-08-30T00:05:21;5;;;4.5;;
15498;SDS011;7851;52.260;6.030;2022-08-30T00:06:21;5.1;;;4.3;;
15498;SDS011;7851;52.260;6.030;2022-08-30T00:07:21;6.6;;;5;;
15498;SDS011;7851;52.260;6.030;2022-08-30T00:08:21;5;;;4.5;;
15498;SDS011;7851;52.260;6.030;2022-08-30T00:09:21;5.4;;;4.9;;
15498;SDS011;7851;52.260;6.030;2022-08-30T00:10:21;5.7;;;5.1;;
15498;SDS011;7851;52.260;6.030;2022-08-30T00:11:22;5.4;;;4.9;;
15498;SDS011;7851;52.260;6.030;2022-08-30T00:12:21;5.8;;;5.2;;
15498;SDS011;7851;52.260;6.030;2022-08-30T00:13:21;6.2;;;5.3;;
15498;SDS011;7851;52.260;6.030;2022-08-30T00:14:21;5.3;;;4.9;;
15498;SDS011;7851;52.260;6.030;2022-08-30T00:15:21;9;;;5.8;;
15498;SDS011;7851;52.260;6.030;2022-08-30T00:16:22;5;;;4.6;;
15498;SDS011;7851;52.260;6.030;2022-08-30T00:17:21;10.2;;;4.8;;
15498;SDS011;7851;52.260;6.030;2022-08-30T00:18:21;5.3;;;4.8;;
15498;SDS011;7851;52.260;6.030;2022-08-30T00:19:21;8.7;;;5.4;;
15498;SDS011;7851;52.260;6.030;2022-08-30T00:20:23;5.5;;;5;;
15498;SDS011;7851;52.260;6.030;2022-08-30T00:21:21;6;;;5.4;;
15498;SDS011;7851;52.260;6.030;2022-08-30T00:22:22;6.1;;;5.5;;
15498;SDS011;7851;52.260;6.030;2022-08-30T00:23:21;5.6;;;5.1;;
15498;SDS011;7851;52.260;6.030;2022-08-30T00:24:21;6.2;;;5.1;;
15498;SDS011;7851;52.260;6.030;2022-08-30T00:25:21;8.9;;;5;;
15498;SDS011;7851;52.260;6.030;2022-08-30T00:26:21;8.7;;;5.2;;
15498;SDS011;7851;52.260;6.030;2022-08-30T00:27:21;10.1;;;5.5;;
15498;SDS011;7851;52.260;6.030;2022-08-30T00:28:21;5.5;;;5.1;;
15498;SDS011;7851;52.260;6.030;2022-08-30T00:29:21;6.7;;;5.6;;
15498;SDS011;7851;52.260;6.030;2022-08-30T00:30:21;6;;;5.4;;
15498;SDS011;7851;52.260;6.030;2022-08-30T00:31:21;6.2;;;5.6;;
15498;SDS011;7851;52.260;6.030;2022-08-30T00:32:21;6.3;;;5.8;;
15498;SDS011;7851;52.260;6.030;2022-08-30T00:33:21;5.9;;;5.4;;
15498;SDS011;7851;52.260;6.030;2022-08-30T00:34:21;5.5;;;5.1;;
15498;SDS011;7851;52.260;6.030;2022-08-30T00:35:21;5.4;;;5;;
15498;SDS011;7851;52.260;6.030;2022-08-30T00:36:21;6;;;5.4;;
15498;SDS011;7851;52.260;6.030;2022-08-30T00:37:21;6;;;5.5;;
15498;SDS011;7851;52.260;6.030;2022-08-30T00:38:21;6.6;;;5.9;;
15498;SDS011;7851;52.260;6.030;2022-08-30T00:39:21;5.6;;;5.2;;
15498;SDS011;7851;52.260;6.030;2022-08-30T00:40:21;6.6;;;5.9;;
15498;SDS011;7851;52.260;6.030;2022-08-30T00:41:21;6.5;;;6;;
15498;SDS011;7851;52.260;6.030;2022-08-30T00:42:21;6.8;;;5.6;;
15498;SDS011;7851;52.260;6.030;2022-08-30T00:43:22;5.7;;;5.2;;
15498;SDS011;7851;52.260;6.030;2022-08-30T00:44:21;8.3;;;4.8;;
15498;SDS011;7851;52.260;6.030;2022-08-30T00:45:22;6.7;;;4.9;;
15498;SDS011;7851;52.260;6.030;2022-08-30T00:46:21;5.3;;;4.9;;
15498;SDS011;7851;52.260;6.030;2022-08-30T00:47:21;8.8;;;5.1;;
15498;SDS011;7851;52.260;6.030;2022-08-30T00:48:21;5.1;;;4.7;;
15498;SDS011;7851;52.260;6.030;2022-08-30T00:49:21;5.8;;;5;;
15498;SDS011;7851;52.260;6.030;2022-08-30T00:50:22;6;;;5;;
15498;SDS011;7851;52.260;6.030;2022-08-30T00:51:21;5.9;;;5.2;;
15498;SDS011;7851;52.260;6.030;2022-08-30T00:52:21;5.3;;;4.8;;
15498;SDS011;7851;52.260;6.030;2022-08-30T00:53:22;7;;;4.8;;
15498;SDS011;7851;52.260;6.030;2022-08-30T00:54:21;5.3;;;4.9;;
15498;SDS011;7851;52.260;6.030;2022-08-30T00:55:21;5.2;;;4.8;;
15498;SDS011;7851;52.260;6.030;2022-08-30T00:56:21;5.8;;;4.7;;
15498;SDS011;7851;52.260;6.030;2022-08-30T00:57:21;6.5;;;5.1;;
15498;SDS011;7851;52.260;6.030;2022-08-30T00:58:23;5.3;;;4.8;;
15498;SDS011;7851;52.260;6.030;2022-08-30T00:59:21;5.4;;;4.9;;
15498;SDS011;7851;52.260;6.030;2022-08-30T01:00:21;5.3;;;4.8;;
15498;SDS011;7851;52.260;6.030;2022-08-30T01:01:21;5.4;;;4.6;;
15498;SDS011;7851;52.260;6.030;2022-08-30T01:02:21;6.8;;;4.9;;
15498;SDS011;7851;52.260;6.030;2022-08-30T01:03:21;5.3;;;4.9;;
15498;SDS011;7851;52.260;6.030;2022-08-30T01:04:21;6;;;5.2;;
15498;SDS011;7851;52.260;6.030;2022-08-30T01:05:21;5.4;;;5;;
15498;SDS011;7851;52.260;6.030;2022-08-30T01:06:21;4.9;;;4.5;;
15498;SDS011;7851;52.260;6.030;2022-08-30T01:07:21;5.2;;;4.8;;
15498;SDS011;7851;52.260;6.030;2022-08-30T01:08:21;5.2;;;4.7;;
15498;SDS011;7851;52.260;6.030;2022-08-30T01:09:21;4.7;;;4.3;;
15498;SDS011;7851;52.260;6.030;2022-08-30T01:10:21;4.9;;;4.5;;
15498;SDS011;7851;52.260;6.030;2022-08-30T01:11:21;7.4;;;4.8;;
15498;SDS011;7851;52.260;6.030;2022-08-30T01:12:21;6.3;;;5.1;;
15498;SDS011;7851;52.260;6.030;2022-08-30T01:13:22;4.7;;;4.4;;
15498;SDS011;7851;52.260;6.030;2022-08-30T01:14:21;5.2;;;4.8;;
15498;SDS011;7851;52.260;6.030;2022-08-30T01:15:21;4;;;3.8;;
15498;SDS011;7851;52.260;6.030;2022-08-30T01:16:21;3.9;;;3.6;;
15498;SDS011;7851;52.260;6.030;2022-08-30T01:17:21;3.4;;;3.2;;
15498;SDS011;7851;52.260;6.030;2022-08-30T01:18:21;4.3;;;4;;
15498;SDS011;7851;52.260;6.030;2022-08-30T01:19:24;7.2;;;4;;
15498;SDS011;7851;52.260;6.030;2022-08-30T01:20:23;4.5;;;4.2;;
15498;SDS011;7851;52.260;6.030;2022-08-30T01:21:22;4.2;;;3.9;;
15498;SDS011;7851;52.260;6.030;2022-08-30T01:22:22;5.1;;;4.3;;
15498;SDS011;7851;52.260;6.030;2022-08-30T01:23:21;4.8;;;4.4;;
15498;SDS011;7851;52.260;6.030;2022-08-30T01:24:21;5.3;;;4.9;;
15498;SDS011;7851;52.260;6.030;2022-08-30T01:25:22;4.9;;;4.5;;
15498;SDS011;7851;52.260;6.030;2022-08-30T01:26:21;5.2;;;4.7;;
15498;SDS011;7851;52.260;6.030;2022-08-30T01:27:21;6.1;;;4.7;;
15498;SDS011;7851;52.260;6.030;2022-08-30T01:28:22;4.9;;;4.5;;
15498;SDS011;7851;52.260;6.030;2022-08-30T01:29:21;5.1;;;4.7;;
15498;SDS011;7851;52.260;6.030;2022-08-30T01:30:21;5.3;;;4.3;;
15498;SDS011;7851;52.260;6.030;2022-08-30T01:31:21;4.9;;;4.5;;
15498;SDS011;7851;52.260;6.030;2022-08-30T01:32:22;5.4;;;4.9;;
15498;SDS011;7851;52.260;6.030;2022-08-30T01:33:21;5.2;;;4.7;;
15498;SDS011;7851;52.260;6.030;2022-08-30T01:34:21;5.2;;;4.8;;
15498;SDS011;7851;52.260;6.030;2022-08-30T01:35:21;5.1;;;4.5;;
15498;SDS011;7851;52.260;6.030;2022-08-30T01:36:21;5.1;;;4.7;;
15498;SDS011;7851;52.260;6.030;2022-08-30T01:37:22;8.3;;;4.7;;
15498;SDS011;7851;52.260;6.030;2022-08-30T01:38:22;4.8;;;4.4;;
15498;SDS011;7851;52.260;6.030;2022-08-30T01:39:21;4.8;;;4.4;;
15498;SDS011;7851;52.260;6.030;2022-08-30T01:40:21;5;;;4.5;;
15498;SDS011;7851;52.260;6.030;2022-08-30T01:41:22;5.6;;;3.8;;
15498;SDS011;7851;52.260;6.030;2022-08-30T01:42:21;4.3;;;3.9;;
15498;SDS011;7851;52.260;6.030;2022-08-30T01:43:21;4.3;;;4;;
15498;SDS011;7851;52.260;6.030;2022-08-30T01:44:21;5.1;;;4.6;;
15498;SDS011;7851;52.260;6.030;2022-08-30T01:45:21;4.6;;;4.3;;
15498;SDS011;7851;52.260;6.030;2022-08-30T01:46:22;4.4;;;4.1;;
15498;SDS011;7851;52.260;6.030;2022-08-30T01:47:21;5.1;;;4.4;;
15498;SDS011;7851;52.260;6.030;2022-08-30T01:48:21;5.3;;;4.8;;
15498;SDS011;7851;52.260;6.030;2022-08-30T01:49:21;5.3;;;4.8;;
15498;SDS011;7851;52.260;6.030;2022-08-30T01:50:21;5.5;;;5;;
15498;SDS011;7851;52.260;6.030;2022-08-30T01:51:21;6.5;;;5.2;;
15498;SDS011;7851;52.260;6.030;2022-08-30T01:52:21;6.5;;;6;;
15498;SDS011;7851;52.260;6.030;2022-08-30T01:53:21;6;;;5.5;;
15498;SDS011;7851;52.260;6.030;2022-08-30T01:54:21;6.5;;;5.9;;
15498;SDS011;7851;52.260;6.030;2022-08-30T01:55:21;7;;;6.3;;
15498;SDS011;7851;52.260;6.030;2022-08-30T01:56:21;6.4;;;5.8;;
15498;SDS011;7851;52.260;6.030;2022-08-30T01:57:21;6.8;;;6;;
15498;SDS011;7851;52.260;6.030;2022-08-30T01:58:21;7;;;6.4;;
15498;SDS011;7851;52.260;6.030;2022-08-30T01:59:21;7.1;;;6.4;;
15498;SDS011;7851;52.260;6.030;2022-08-30T02:00:21;8.5;;;6.7;;
15498;SDS011;7851;52.260;6.030;2022-08-30T02:01:21;8.1;;;7.4;;
15498;SDS011;7851;52.260;6.030;2022-08-30T02:02:22;6.8;;;6.2;;
15498;SDS011;7851;52.260;6.030;2022-08-30T02:03:21;7.6;;;6.8;;
15498;SDS011;7851;52.260;6.030;2022-08-30T02:04:21;7.1;;;6.5;;
15498;SDS011;7851;52.260;6.030;2022-08-30T02:05:21;7.3;;;6.6;;
15498;SDS011;7851;52.260;6.030;2022-08-30T02:06:21;7.1;;;6.5;;
15498;SDS011;7851;52.260;6.030;2022-08-30T02:07:21;6.6;;;6.1;;
15498;SDS011;7851;52.260;6.030;2022-08-30T02:08:21;6.1;;;5.6;;
15498;SDS011;7851;52.260;6.030;2022-08-30T02:09:21;5.8;;;5.4;;
15498;SDS011;7851;52.260;6.030;2022-08-30T02:10:21;5.9;;;5.5;;
15498;SDS011;7851;52.260;6.030;2022-08-30T02:11:21;6.4;;;6;;
15498;SDS011;7851;52.260;6.030;2022-08-30T02:12:21;7.9;;;7.1;;
15498;SDS011;7851;52.260;6.030;2022-08-30T02:13:21;6.4;;;6;;
15498;SDS011;7851;52.260;6.030;2022-08-30T02:14:21;6.4;;;5.5;;
15498;SDS011;7851;52.260;6.030;2022-08-30T02:15:21;14.3;;;5.1;;
15498;SDS011;7851;52.260;6.030;2022-08-30T02:16:22;5.7;;;5.2;;
15498;SDS011;7851;52.260;6.030;2022-08-30T02:17:21;5.8;;;4.5;;
15498;SDS011;7851;52.260;6.030;2022-08-30T02:18:21;5.5;;;5;;
15498;SDS011;7851;52.260;6.030;2022-08-30T02:19:21;5.2;;;4.8;;
15498;SDS011;7851;52.260;6.030;2022-08-30T02:20:21;5.8;;;5.4;;
15498;SDS011;7851;52.260;6.030;2022-08-30T02:21:21;8.4;;;5.3;;
15498;SDS011;7851;52.260;6.030;2022-08-30T02:22:21;7.5;;;5.8;;
15498;SDS011;7851;52.260;6.030;2022-08-30T02:23:21;6.7;;;6.1;;
15498;SDS011;7851;52.260;6.030;2022-08-30T02:24:21;7.5;;;6.6;;
15498;SDS011;7851;52.260;6.030;2022-08-30T02:25:21;5.7;;;5.2;;
15498;SDS011;7851;52.260;6.030;2022-08-30T02:26:21;5.8;;;5.4;;
15498;SDS011;7851;52.260;6.030;2022-08-30T02:27:21;7;;;6.5;;
15498;SDS011;7851;52.260;6.030;2022-08-30T02:28:21;7.5;;;6.5;;
15498;SDS011;7851;52.260;6.030;2022-08-30T02:29:21;6.9;;;6.2;;
15498;SDS011;7851;52.260;6.030;2022-08-30T02:30:21;6.6;;;6;;
15498;SDS011;7851;52.260;6.030;2022-08-30T02:31:21;7.4;;;5.5;;
15498;SDS011;7851;52.260;6.030;2022-08-30T02:32:21;6.4;;;5.9;;
15498;SDS011;7851;52.260;6.030;2022-08-30T02:33:21;7.3;;;6.7;;
15498;SDS011;7851;52.260;6.030;2022-08-30T02:34:21;7.8;;;7.1;;
15498;SDS011;7851;52.260;6.030;2022-08-30T02:35:21;7.3;;;6.7;;
15498;SDS011;7851;52.260;6.030;2022-08-30T02:36:21;8.5;;;7.8;;
15498;SDS011;7851;52.260;6.030;2022-08-30T02:37:21;8.1;;;7.3;;
15498;SDS011;7851;52.260;6.030;2022-08-30T02:38:21;7.6;;;7;;
15498;SDS011;7851;52.260;6.030;2022-08-30T02:39:21;7.9;;;7.3;;
15498;SDS011;7851;52.260;6.030;2022-08-30T02:40:21;6;;;5.5;;
15498;SDS011;7851;52.260;6.030;2022-08-30T02:41:21;6.5;;;6;;
15498;SDS011;7851;52.260;6.030;2022-08-30T02:42:21;6.5;;;6;;
15498;SDS011;7851;52.260;6.030;2022-08-30T02:43:21;6.4;;;5.9;;
15498;SDS011;7851;52.260;6.030;2022-08-30T02:44:21;5.5;;;5.1;;
15498;SDS011;7851;52.260;6.030;2022-08-30T02:45:21;6.4;;;5.9;;
15498;SDS011;7851;52.260;6.030;2022-08-30T02:46:21;5.6;;;5.1;;
15498;SDS011;7851;52.260;6.030;2022-08-30T02:47:21;6.9;;;6.3;;
15498;SDS011;7851;52.260;6.030;2022-08-30T02:48:21;6.8;;;6.3;;
15498;SDS011;7851;52.260;6.030;2022-08-30T02:49:21;8;;;7.4;;
15498;SDS011;7851;52.260;6.030;2022-08-30T02:50:21;8.4;;;7.4;;
15498;SDS011;7851;52.260;6.030;2022-08-30T02:51:21;7.6;;;7;;
15498;SDS011;7851;52.260;6.030;2022-08-30T02:52:21;7.3;;;6.7;;
15498;SDS011;7851;52.260;6.030;2022-08-30T02:53:21;7.4;;;6.8;;
15498;SDS011;7851;52.260;6.030;2022-08-30T02:54:21;7.6;;;6.8;;
15498;SDS011;7851;52.260;6.030;2022-08-30T02:55:21;7.5;;;6.8;;
15498;SDS011;7851;52.260;6.030;2022-08-30T02:56:21;8.5;;;7.7;;
15498;SDS011;7851;52.260;6.030;2022-08-30T02:57:21;7.9;;;7.3;;
15498;SDS011;7851;52.260;6.030;2022-08-30T02:58:21;7.9;;;7.1;;
15498;SDS011;7851;52.260;6.030;2022-08-30T02:59:21;7.4;;;6.9;;
15498;SDS011;7851;52.260;6.030;2022-08-30T03:00:21;8.8;;;8;;
15498;SDS011;7851;52.260;6.030;2022-08-30T03:01:21;8.9;;;8;;
15498;SDS011;7851;52.260;6.030;2022-08-30T03:02:21;8.7;;;8;;
15498;SDS011;7851;52.260;6.030;2022-08-30T03:03:21;8.4;;;7.7;;
15498;SDS011;7851;52.260;6.030;2022-08-30T03:04:21;9.3;;;8.4;;
15498;SDS011;7851;52.260;6.030;2022-08-30T03:05:21;8.1;;;7.4;;
15498;SDS011;7851;52.260;6.030;2022-08-30T03:06:21;7.8;;;7.1;;
15498;SDS011;7851;52.260;6.030;2022-08-30T03:07:21;8.8;;;7.9;;
15498;SDS011;7851;52.260;6.030;2022-08-30T03:08:21;9.9;;;7;;
15498;SDS011;7851;52.260;6.030;2022-08-30T03:09:21;13.3;;;8;;
15498;SDS011;7851;52.260;6.030;2022-08-30T03:10:21;9.4;;;8.6;;
15498;SDS011;7851;52.260;6.030;2022-08-30T03:11:21;9.3;;;8.4;;
15498;SDS011;7851;52.260;6.030;2022-08-30T03:12:21;9;;;8.3;;
15498;SDS011;7851;52.260;6.030;2022-08-30T03:13:21;9.9;;;9;;
15498;SDS011;7851;52.260;6.030;2022-08-30T03:14:21;9.7;;;8.8;;
15498;SDS011;7851;52.260;6.030;2022-08-30T03:15:21;8.9;;;8.1;;
15498;SDS011;7851;52.260;6.030;2022-08-30T03:16:21;8.4;;;7.7;;
15498;SDS011;7851;52.260;6.030;2022-08-30T03:17:21;8.8;;;8.1;;
15498;SDS011;7851;52.260;6.030;2022-08-30T03:18:22;9.9;;;9.1;;
15498;SDS011;7851;52.260;6.030;2022-08-30T03:19:21;10.9;;;9.8;;
15498;SDS011;7851;52.260;6.030;2022-08-30T03:20:21;8.9;;;8;;
15498;SDS011;7851;52.260;6.030;2022-08-30T03:21:21;12.2;;;8.1;;
15498;SDS011;7851;52.260;6.030;2022-08-30T03:22:21;7.7;;;7.2;;
15498;SDS011;7851;52.260;6.030;2022-08-30T03:23:21;8.6;;;7.7;;
15498;SDS011;7851;52.260;6.030;2022-08-30T03:24:21;8.1;;;7.5;;
15498;SDS011;7851;52.260;6.030;2022-08-30T03:25:21;8.9;;;8;;
15498;SDS011;7851;52.260;6.030;2022-08-30T03:26:21;8.3;;;7.6;;
15498;SDS011;7851;52.260;6.030;2022-08-30T03:27:21;8.2;;;7.5;;
15498;SDS011;7851;52.260;6.030;2022-08-30T03:28:21;9.7;;;8.8;;
15498;SDS011;7851;52.260;6.030;2022-08-30T03:29:21;10.1;;;8.6;;
15498;SDS011;7851;52.260;6.030;2022-08-30T03:30:21;8.9;;;8;;
15498;SDS011;7851;52.260;6.030;2022-08-30T03:31:21;8.5;;;7.7;;
15498;SDS011;7851;52.260;6.030;2022-08-30T03:32:21;8.5;;;7.8;;
15498;SDS011;7851;52.260;6.030;2022-08-30T03:33:21;7;;;6.3;;
15498;SDS011;7851;52.260;6.030;2022-08-30T03:34:21;7.6;;;7;;
15498;SDS011;7851;52.260;6.030;2022-08-30T03:35:21;6.7;;;6.1;;
15498;SDS011;7851;52.260;6.030;2022-08-30T03:36:21;7.4;;;6.8;;
15498;SDS011;7851;52.260;6.030;2022-08-30T03:37:21;7.3;;;6.7;;
15498;SDS011;7851;52.260;6.030;2022-08-30T03:38:21;7.2;;;6.7;;
15498;SDS011;7851;52.260;6.030;2022-08-30T03:39:21;6.8;;;6.3;;
15498;SDS011;7851;52.260;6.030;2022-08-30T03:40:21;7.3;;;6.6;;
15498;SDS011;7851;52.260;6.030;2022-08-30T03:41:21;7.9;;;6.7;;
15498;SDS011;7851;52.260;6.030;2022-08-30T03:42:21;7.3;;;6.7;;
15498;SDS011;7851;52.260;6.030;2022-08-30T03:43:21;6.6;;;6;;
15498;SDS011;7851;52.260;6.030;2022-08-30T03:44:21;7.2;;;6.7;;
15498;SDS011;7851;52.260;6.030;2022-08-30T03:45:21;7.3;;;6.7;;
15498;SDS011;7851;52.260;6.030;2022-08-30T03:46:21;6.8;;;6.3;;
15498;SDS011;7851;52.260;6.030;2022-08-30T03:47:21;7.8;;;7.1;;
15498;SDS011;7851;52.260;6.030;2022-08-30T03:48:21;6.8;;;6.2;;
15498;SDS011;7851;52.260;6.030;2022-08-30T03:49:21;8;;;7.1;;
15498;SDS011;7851;52.260;6.030;2022-08-30T03:50:21;7;;;6.4;;
15498;SDS011;7851;52.260;6.030;2022-08-30T03:51:21;8.2;;;6.8;;
15498;SDS011;7851;52.260;6.030;2022-08-30T03:52:21;7.9;;;7.3;;
15498;SDS011;7851;52.260;6.030;2022-08-30T03:53:21;8.1;;;7.3;;
15498;SDS011;7851;52.260;6.030;2022-08-30T03:54:21;10.8;;;6.7;;
15498;SDS011;7851;52.260;6.030;2022-08-30T03:55:21;8.1;;;6.6;;
15498;SDS011;7851;52.260;6.030;2022-08-30T03:56:21;8;;;7.1;;
15498;SDS011;7851;52.260;6.030;2022-08-30T03:57:21;10.1;;;7.5;;
15498;SDS011;7851;52.260;6.030;2022-08-30T03:58:21;24.9;;;7.5;;
15498;SDS011;7851;52.260;6.030;2022-08-30T03:59:21;8.2;;;7;;
15498;SDS011;7851;52.260;6.030;2022-08-30T04:00:21;8.9;;;7.8;;
15498;SDS011;7851;52.260;6.030;2022-08-30T04:01:21;19.8;;;7.2;;
15498;SDS011;7851;52.260;6.030;2022-08-30T04:02:21;6.9;;;6.2;;
15498;SDS011;7851;52.260;6.030;2022-08-30T04:03:21;8.2;;;6.3;;
15498;SDS011;7851;52.260;6.030;2022-08-30T04:04:21;7.8;;;6.9;;
15498;SDS011;7851;52.260;6.030;2022-08-30T04:05:21;8.3;;;6;;
15498;SDS011;7851;52.260;6.030;2022-08-30T04:06:21;14.2;;;6.5;;
15498;SDS011;7851;52.260;6.030;2022-08-30T04:07:21;17.2;;;6.2;;
15498;SDS011;7851;52.260;6.030;2022-08-30T04:08:21;6.6;;;5;;
15498;SDS011;7851;52.260;6.030;2022-08-30T04:09:21;7;;;6.3;;
15498;SDS011;7851;52.260;6.030;2022-08-30T04:10:21;6.1;;;5.6;;
15498;SDS011;7851;52.260;6.030;2022-08-30T04:11:21;7.7;;;5.6;;
15498;SDS011;7851;52.260;6.030;2022-08-30T04:12:21;7.5;;;6.5;;
15498;SDS011;7851;52.260;6.030;2022-08-30T04:13:21;32.6;;;6.6;;
15498;SDS011;7851;52.260;6.030;2022-08-30T04:14:21;17.3;;;6.1;;
15498;SDS011;7851;52.260;6.030;2022-08-30T04:15:21;23.9;;;7.1;;
15498;SDS011;7851;52.260;6.030;2022-08-30T04:16:21;16.7;;;7.2;;
15498;SDS011;7851;52.260;6.030;2022-08-30T04:17:21;9.3;;;6.8;;
15498;SDS011;7851;52.260;6.030;2022-08-30T04:18:21;6.8;;;6.2;;
15498;SDS011;7851;52.260;6.030;2022-08-30T04:19:21;11.2;;;6.5;;
15498;SDS011;7851;52.260;6.030;2022-08-30T04:20:21;7.5;;;6.9;;
15498;SDS011;7851;52.260;6.030;2022-08-30T04:21:21;8;;;7.2;;
15498;SDS011;7851;52.260;6.030;2022-08-30T04:22:21;7.8;;;7.1;;
15498;SDS011;7851;52.260;6.030;2022-08-30T04:23:21;9.5;;;8.3;;
15498;SDS011;7851;52.260;6.030;2022-08-30T04:24:21;8.8;;;7.5;;
15498;SDS011;7851;52.260;6.030;2022-08-30T04:25:21;8.8;;;8.1;;
15498;SDS011;7851;52.260;6.030;2022-08-30T04:26:21;9.7;;;8.1;;
15498;SDS011;7851;52.260;6.030;2022-08-30T04:27:21;8.9;;;8;;
15498;SDS011;7851;52.260;6.030;2022-08-30T04:28:21;13.5;;;8.8;;
15498;SDS011;7851;52.260;6.030;2022-08-30T04:29:21;9.4;;;8.6;;
15498;SDS011;7851;52.260;6.030;2022-08-30T04:30:21;8.8;;;8.1;;
15498;SDS011;7851;52.260;6.030;2022-08-30T04:31:21;8.8;;;8;;
15498;SDS011;7851;52.260;6.030;2022-08-30T04:32:21;9;;;8.2;;
15498;SDS011;7851;52.260;6.030;2022-08-30T04:33:21;11.7;;;9.5;;
15498;SDS011;7851;52.260;6.030;2022-08-30T04:34:21;9.7;;;8.8;;
15498;SDS011;7851;52.260;6.030;2022-08-30T04:35:21;9.7;;;8.9;;
15498;SDS011;7851;52.260;6.030;2022-08-30T04:36:21;10.6;;;9.5;;
15498;SDS011;7851;52.260;6.030;2022-08-30T04:37:21;10.3;;;9.4;;
15498;SDS011;7851;52.260;6.030;2022-08-30T04:38:21;9.4;;;8.7;;
15498;SDS011;7851;52.260;6.030;2022-08-30T04:39:21;10;;;9.1;;
15498;SDS011;7851;52.260;6.030;2022-08-30T04:40:22;8.8;;;8;;
15498;SDS011;7851;52.260;6.030;2022-08-30T04:41:21;9.4;;;8.5;;
15498;SDS011;7851;52.260;6.030;2022-08-30T04:42:21;9.2;;;8.3;;
15498;SDS011;7851;52.260;6.030;2022-08-30T04:43:21;8.8;;;8;;
15498;SDS011;7851;52.260;6.030;2022-08-30T04:44:21;8.9;;;8.1;;
15498;SDS011;7851;52.260;6.030;2022-08-30T04:45:21;8.2;;;7.5;;
15498;SDS011;7851;52.260;6.030;2022-08-30T04:46:21;11.9;;;7.9;;
15498;SDS011;7851;52.260;6.030;2022-08-30T04:47:21;8.1;;;7.3;;
15498;SDS011;7851;52.260;6.030;2022-08-30T04:48:21;6.5;;;6.1;;
15498;SDS011;7851;52.260;6.030;2022-08-30T04:49:21;7.4;;;6.8;;
15498;SDS011;7851;52.260;6.030;2022-08-30T04:50:21;8.3;;;7.6;;
15498;SDS011;7851;52.260;6.030;2022-08-30T04:51:21;9.6;;;8.7;;
15498;SDS011;7851;52.260;6.030;2022-08-30T04:52:21;8.2;;;7.6;;
15498;SDS011;7851;52.260;6.030;2022-08-30T04:53:21;7.5;;;7;;
15498;SDS011;7851;52.260;6.030;2022-08-30T04:54:21;8.4;;;7.7;;
15498;SDS011;7851;52.260;6.030;2022-08-30T04:55:21;8.5;;;7.6;;
15498;SDS011;7851;52.260;6.030;2022-08-30T04:56:21;7.8;;;7.3;;
15498;SDS011;7851;52.260;6.030;2022-08-30T04:57:21;11.9;;;7.5;;
15498;SDS011;7851;52.260;6.030;2022-08-30T04:58:21;8.9;;;8.2;;
15498;SDS011;7851;52.260;6.030;2022-08-30T04:59:21;9;;;8.3;;
15498;SDS011;7851;52.260;6.030;2022-08-30T05:00:21;10.1;;;9.1;;
15498;SDS011;7851;52.260;6.030;2022-08-30T05:01:22;10.5;;;9.5;;
15498;SDS011;7851;52.260;6.030;2022-08-30T05:02:21;10.4;;;9.5;;
15498;SDS011;7851;52.260;6.030;2022-08-30T05:03:21;9;;;8.3;;
15498;SDS011;7851;52.260;6.030;2022-08-30T05:04:21;9.4;;;8.6;;
15498;SDS011;7851;52.260;6.030;2022-08-30T05:05:21;10.5;;;9;;
15498;SDS011;7851;52.260;6.030;2022-08-30T05:06:21;10.5;;;9.6;;
15498;SDS011;7851;52.260;6.030;2022-08-30T05:07:21;9.6;;;8.8;;
15498;SDS011;7851;52.260;6.030;2022-08-30T05:08:21;9.4;;;8.6;;
15498;SDS011;7851;52.260;6.030;2022-08-30T05:09:21;10.4;;;9.4;;
15498;SDS011;7851;52.260;6.030;2022-08-30T05:10:21;10.2;;;9.3;;
15498;SDS011;7851;52.260;6.030;2022-08-30T05:11:21;9.6;;;8.7;;
15498;SDS011;7851;52.260;6.030;2022-08-30T05:12:21;8.8;;;8.1;;
15498;SDS011;7851;52.260;6.030;2022-08-30T05:13:21;10.6;;;8.9;;
15498;SDS011;7851;52.260;6.030;2022-08-30T05:14:21;12.8;;;8.7;;
15498;SDS011;7851;52.260;6.030;2022-08-30T05:15:21;9.8;;;8.2;;
15498;SDS011;7851;52.260;6.030;2022-08-30T05:16:21;11.2;;;9.9;;
15498;SDS011;7851;52.260;6.030;2022-08-30T05:17:21;9.8;;;9;;
15498;SDS011;7851;52.260;6.030;2022-08-30T05:18:21;10.1;;;9.2;;
15498;SDS011;7851;52.260;6.030;2022-08-30T05:19:21;9.7;;;8.8;;
15498;SDS011;7851;52.260;6.030;2022-08-30T05:20:21;9.9;;;9.1;;
15498;SDS011;7851;52.260;6.030;2022-08-30T05:21:22;9.8;;;9;;
15498;SDS011;7851;52.260;6.030;2022-08-30T05:22:21;10.6;;;9.7;;
15498;SDS011;7851;52.260;6.030;2022-08-30T05:23:21;10.4;;;9.4;;
15498;SDS011;7851;52.260;6.030;2022-08-30T05:24:21;11.8;;;10.6;;
15498;SDS011;7851;52.260;6.030;2022-08-30T05:25:21;10.3;;;9.2;;
15498;SDS011;7851;52.260;6.030;2022-08-30T05:26:22;11.6;;;10.6;;
15498;SDS011;7851;52.260;6.030;2022-08-30T05:27:21;11.1;;;10.1;;
15498;SDS011;7851;52.260;6.030;2022-08-30T05:28:21;11.3;;;10.3;;
15498;SDS011;7851;52.260;6.030;2022-08-30T05:29:21;10.4;;;9.4;;
15498;SDS011;7851;52.260;6.030;2022-08-30T05:30:21;11.4;;;9.6;;
15498;SDS011;7851;52.260;6.030;2022-08-30T05:31:22;11.2;;;10;;
15498;SDS011;7851;52.260;6.030;2022-08-30T05:32:21;10.2;;;9.2;;
15498;SDS011;7851;52.260;6.030;2022-08-30T05:33:22;11.1;;;10.1;;
15498;SDS011;7851;52.260;6.030;2022-08-30T05:34:21;11.9;;;9.3;;
15498;SDS011;7851;52.260;6.030;2022-08-30T05:35:21;10.7;;;9.7;;
15498;SDS011;7851;52.260;6.030;2022-08-30T05:36:22;10.7;;;9.6;;
15498;SDS011;7851;52.260;6.030;2022-08-30T05:37:21;12.4;;;9.3;;
15498;SDS011;7851;52.260;6.030;2022-08-30T05:38:21;12.4;;;10;;
15498;SDS011;7851;52.260;6.030;2022-08-30T05:39:21;11.7;;;10.5;;
15498;SDS011;7851;52.260;6.030;2022-08-30T05:40:21;9.8;;;8.9;;
15498;SDS011;7851;52.260;6.030;2022-08-30T05:41:21;10.8;;;9.8;;
15498;SDS011;7851;52.260;6.030;2022-08-30T05:42:21;11.2;;;9.8;;
15498;SDS011;7851;52.260;6.030;2022-08-30T05:43:21;10.8;;;9.5;;
15498;SDS011;7851;52.260;6.030;2022-08-30T05:44:21;10.2;;;9.2;;
15498;SDS011;7851;52.260;6.030;2022-08-30T05:45:21;10.9;;;9.9;;
15498;SDS011;7851;52.260;6.030;2022-08-30T05:46:21;10.7;;;9.1;;
15498;SDS011;7851;52.260;6.030;2022-08-30T05:47:21;12.4;;;9.6;;
15498;SDS011;7851;52.260;6.030;2022-08-30T05:48:21;13.7;;;9.2;;
15498;SDS011;7851;52.260;6.030;2022-08-30T05:49:21;10.8;;;9.7;;
15498;SDS011;7851;52.260;6.030;2022-08-30T05:50:21;10.8;;;9.7;;
15498;SDS011;7851;52.260;6.030;2022-08-30T05:51:21;9.5;;;8.7;;
15498;SDS011;7851;52.260;6.030;2022-08-30T05:52:21;9.8;;;8.9;;
15498;SDS011;7851;52.260;6.030;2022-08-30T05:53:21;11.4;;;10.3;;
15498;SDS011;7851;52.260;6.030;2022-08-30T05:54:21;10.3;;;9.4;;
15498;SDS011;7851;52.260;6.030;2022-08-30T05:55:21;9.9;;;8.9;;
15498;SDS011;7851;52.260;6.030;2022-08-30T05:56:22;9.6;;;8.7;;
15498;SDS011;7851;52.260;6.030;2022-08-30T05:57:21;10;;;9.1;;
15498;SDS011;7851;52.260;6.030;2022-08-30T05:58:21;9;;;8.1;;
15498;SDS011;7851;52.260;6.030;2022-08-30T05:59:21;11.5;;;9.7;;
15498;SDS011;7851;52.260;6.030;2022-08-30T06:00:21;9.9;;;8.9;;
15498;SDS011;7851;52.260;6.030;2022-08-30T06:01:21;9.1;;;8.4;;
15498;SDS011;7851;52.260;6.030;2022-08-30T06:02:21;9.6;;;8.8;;
15498;SDS011;7851;52.260;6.030;2022-08-30T06:03:21;10.7;;;8.7;;
15498;SDS011;7851;52.260;6.030;2022-08-30T06:04:21;10.4;;;8.8;;
15498;SDS011;7851;52.260;6.030;2022-08-30T06:05:21;8.8;;;8;;
15498;SDS011;7851;52.260;6.030;2022-08-30T06:06:21;9.9;;;8.9;;
15498;SDS011;7851;52.260;6.030;2022-08-30T06:07:21;8.9;;;8.2;;
15498;SDS011;7851;52.260;6.030;2022-08-30T06:08:21;9.7;;;7.9;;
15498;SDS011;7851;52.260;6.030;2022-08-30T06:09:21;9.3;;;8.4;;
15498;SDS011;7851;52.260;6.030;2022-08-30T06:10:21;11.5;;;8.9;;
15498;SDS011;7851;52.260;6.030;2022-08-30T06:11:22;8;;;7.3;;
15498;SDS011;7851;52.260;6.030;2022-08-30T06:12:21;8.8;;;8.1;;
15498;SDS011;7851;52.260;6.030;2022-08-30T06:13:21;9.1;;;8.3;;
15498;SDS011;7851;52.260;6.030;2022-08-30T06:14:21;9.7;;;7.5;;
15498;SDS011;7851;52.260;6.030;2022-08-30T06:15:21;8.9;;;8.1;;
15498;SDS011;7851;52.260;6.030;2022-08-30T06:16:21;8.3;;;7.6;;
15498;SDS011;7851;52.260;6.030;2022-08-30T06:17:21;7.8;;;7.2;;
15498;SDS011;7851;52.260;6.030;2022-08-30T06:18:21;8.8;;;7.9;;
15498;SDS011;7851;52.260;6.030;2022-08-30T06:19:21;8.4;;;7.6;;